Time;durP1;ratioP1;P1;durP2;ratioP2;P2;SDS_P1;SDS_P2;PMS_P1;PMS_P2;Temp;Humidity;BMP_temperature;BMP_pressure;BME280_temperature;BME280_humidity;BME280_pressure;Samples;Min_cycle;Max_cycle;Signal;HPM_P1;HPM_P2
2022/08/12 21:25:27;;;;;;;3.70;2.63;;;16.30;84.40;;;;;;5153767;27;20287;-61
2022/08/12 21:27:53;;;;;;;2.77;2.40;;;16.30;84.20;;;;;;5114213;27;20190;-61
2022/08/12 21:30:19;;;;;;;2.93;2.47;;;16.30;84.30;;;;;;5098888;27;20195;-61
2022/08/12 21:32:45;;;;;;;3.50;2.60;;;16.30;84.30;;;;;;5132715;27;20195;-61
2022/08/12 21:35:11;;;;;;;3.83;2.77;;;16.20;84.00;;;;;;5113048;27;20211;-61
2022/08/12 21:37:41;;;;;;;4.17;2.80;;;16.20;84.00;;;;;;5124448;27;20445;-61
2022/08/12 21:40:11;;;;;;;5.43;2.70;;;16.20;84.10;;;;;;5146629;27;20232;-61
2022/08/12 21:42:37;;;;;;;3.00;2.57;;;16.30;84.00;;;;;;5111164;27;20187;-61
2022/08/12 21:45:04;;;;;;;5.23;2.73;;;16.30;84.20;;;;;;5151850;27;20211;-61
2022/08/12 21:47:29;;;;;;;3.40;2.60;;;16.20;84.00;;;;;;5113153;28;20180;-61
2022/08/12 21:49:55;;;;;;;2.40;2.20;;;16.20;83.80;;;;;;5089187;27;20184;-61
2022/08/12 21:52:24;;;;;;;3.87;2.30;;;16.20;83.80;;;;;;5097879;27;20223;-61
2022/08/12 21:54:49;;;;;;;3.80;2.40;;;16.10;84.10;;;;;;5110717;27;20260;-61
2022/08/12 21:57:15;;;;;;;2.33;2.10;;;16.00;84.10;;;;;;5132814;27;20195;-61
2022/08/12 21:59:41;;;;;;;3.50;2.70;;;16.00;84.20;;;;;;5112180;28;20195;-61
2022/08/12 22:07:44;;;;;;;3.90;2.63;;;16.00;84.20;;;;;;5130740;27;20190;-61
2022/08/12 22:10:10;;;;;;;5.50;2.10;;;16.00;84.10;;;;;;5133269;27;20236;-61
2022/08/12 22:12:36;;;;;;;3.63;2.43;;;16.00;84.10;;;;;;5118700;27;20176;-61
2022/08/12 22:15:03;;;;;;;3.80;2.70;;;16.00;84.00;;;;;;5099341;27;20194;-61
2022/08/12 22:17:35;;;;;;;2.93;2.57;;;16.00;83.80;;;;;;5133008;27;20184;-61
2022/08/12 22:20:12;;;;;;;2.70;2.43;;;16.00;83.40;;;;;;5117577;27;20183;-61
2022/08/12 22:22:39;;;;;;;2.33;2.13;;;16.00;83.60;;;;;;5121939;27;20175;-61
2022/08/12 22:25:10;;;;;;;4.57;2.60;;;16.00;83.40;;;;;;5112275;28;20251;-61
2022/08/12 22:33:07;;;;;;;2.83;2.57;;;16.00;83.40;;;;;;5135665;27;20190;-61
2022/08/12 22:35:33;;;;;;;3.50;2.50;;;15.90;83.30;;;;;;5105513;28;20189;-61
2022/08/12 22:38:28;;;;;;;3.30;2.30;;;15.90;83.20;;;;;;5130707;27;20190;-61
2022/08/12 22:40:59;;;;;;;3.13;2.43;;;16.00;82.90;;;;;;5083178;27;20187;-61
2022/08/12 22:48:45;;;;;;;2.23;2.03;;;16.00;82.80;;;;;;5130383;27;20187;-61
2022/08/12 22:51:11;;;;;;;2.83;2.60;;;15.90;82.80;;;;;;5086957;28;20185;-61
2022/08/12 22:53:37;;;;;;;3.10;2.43;;;15.90;82.90;;;;;;5103026;28;20185;-61
2022/08/12 22:56:05;;;;;;;2.97;2.67;;;15.90;82.90;;;;;;5082023;27;20226;-61
2022/08/12 22:58:32;;;;;;;2.43;2.20;;;15.90;82.80;;;;;;5088752;28;20193;-61
2022/08/12 23:00:58;;;;;;;2.73;2.50;;;15.90;82.70;;;;;;5088003;27;20195;-61
2022/08/12 23:03:23;;;;;;;2.27;1.87;;;15.90;82.70;;;;;;5081498;27;20200;-61
2022/08/12 23:05:51;;;;;;;3.83;2.30;;;15.90;82.80;;;;;;5078390;27;20195;-61
2022/08/12 23:08:21;;;;;;;4.17;2.60;;;15.90;82.70;;;;;;5093348;28;20181;-61
2022/08/12 23:10:49;;;;;;;2.30;2.10;;;15.80;82.50;;;;;;5106036;27;20211;-61
2022/08/12 23:15:59;;;;;;;3.27;2.60;;;15.80;82.50;;;;;;5121273;27;20267;-61
2022/08/12 23:18:27;;;;;;;4.27;2.20;;;15.80;82.50;;;;;;5118155;27;20183;-61
2022/08/12 23:20:54;;;;;;;5.90;2.20;;;15.90;82.40;;;;;;5111160;28;20196;-61
2022/08/12 23:23:19;;;;;;;2.40;2.17;;;15.80;82.50;;;;;;5081388;27;20197;-61
2022/08/12 23:25:45;;;;;;;2.30;2.10;;;15.80;82.40;;;;;;5117766;27;20207;-61
2022/08/12 23:30:57;;;;;;;2.47;2.27;;;15.80;82.00;;;;;;5116740;27;20191;-61
2022/08/12 23:33:24;;;;;;;4.00;2.23;;;15.90;81.70;;;;;;5109604;28;20188;-61
2022/08/12 23:35:50;;;;;;;4.03;2.47;;;15.90;81.60;;;;;;5094710;27;20287;-61
2022/08/12 23:38:15;;;;;;;3.80;2.23;;;15.90;81.60;;;;;;5117648;27;20194;-61
2022/08/12 23:40:41;;;;;;;2.70;2.07;;;15.90;81.70;;;;;;5117640;27;20179;-61
2022/08/12 23:43:07;;;;;;;2.37;2.10;;;15.90;81.70;;;;;;5112175;28;20184;-61
2022/08/12 23:45:33;;;;;;;5.07;2.70;;;15.90;81.90;;;;;;5074017;27;20211;-61
2022/08/12 23:48:00;;;;;;;4.43;2.40;;;15.90;81.90;;;;;;5082797;27;20256;-61
2022/08/12 23:50:27;;;;;;;3.27;2.63;;;16.00;81.80;;;;;;5097194;28;20184;-61
2022/08/12 23:52:53;;;;;;;3.90;2.20;;;16.00;81.70;;;;;;5089154;27;20236;-61
2022/08/12 23:55:19;;;;;;;2.60;2.40;;;16.00;81.60;;;;;;5114405;27;20191;-61
2022/08/12 23:57:48;;;;;;;5.87;2.37;;;15.90;82.00;;;;;;5085087;27;20290;-61
